sensor_id;sensor_type;location;lat;lon;timestamp;P1;durP1;ratioP1;P2;durP2;ratioP2
11829;SDS011;5972;42.134;24.718;2023-06-26T00:00:06;7.97;;;5.95;;
11829;SDS011;5972;42.134;24.718;2023-06-26T00:02:34;7.93;;;5.95;;
11829;SDS011;5972;42.134;24.718;2023-06-26T00:05:00;9.27;;;5.50;;
11829;SDS011;5972;42.134;24.718;2023-06-26T00:07:28;7.75;;;5.97;;
11829;SDS011;5972;42.134;24.718;2023-06-26T00:09:55;8.50;;;6.30;;
11829;SDS011;5972;42.134;24.718;2023-06-26T00:12:25;6.97;;;5.95;;
11829;SDS011;5972;42.134;24.718;2023-06-26T00:14:51;9.73;;;6.28;;
11829;SDS011;5972;42.134;24.718;2023-06-26T00:17:18;7.75;;;5.60;;
11829;SDS011;5972;42.134;24.718;2023-06-26T00:19:45;6.90;;;5.85;;
11829;SDS011;5972;42.134;24.718;2023-06-26T00:22:12;9.73;;;5.93;;
11829;SDS011;5972;42.134;24.718;2023-06-26T00:24:39;9.85;;;5.97;;
11829;SDS011;5972;42.134;24.718;2023-06-26T00:27:06;8.07;;;5.38;;
11829;SDS011;5972;42.134;24.718;2023-06-26T00:29:34;7.38;;;5.80;;
11829;SDS011;5972;42.134;24.718;2023-06-26T00:32:01;11.57;;;6.38;;
11829;SDS011;5972;42.134;24.718;2023-06-26T00:34:28;9.73;;;5.88;;
11829;SDS011;5972;42.134;24.718;2023-06-26T00:36:55;7.38;;;5.97;;
11829;SDS011;5972;42.134;24.718;2023-06-26T00:39:22;6.22;;;5.63;;
11829;SDS011;5972;42.134;24.718;2023-06-26T00:41:50;8.82;;;6.03;;
11829;SDS011;5972;42.134;24.718;2023-06-26T00:44:18;7.45;;;6.25;;
11829;SDS011;5972;42.134;24.718;2023-06-26T00:46:47;6.97;;;5.43;;
11829;SDS011;5972;42.134;24.718;2023-06-26T00:49:14;8.50;;;6.20;;
11829;SDS011;5972;42.134;24.718;2023-06-26T00:51:41;7.30;;;6.47;;
11829;SDS011;5972;42.134;24.718;2023-06-26T00:54:08;10.93;;;6.32;;
11829;SDS011;5972;42.134;24.718;2023-06-26T00:56:35;13.27;;;6.53;;
11829;SDS011;5972;42.134;24.718;2023-06-26T00:59:03;8.02;;;6.57;;
11829;SDS011;5972;42.134;24.718;2023-06-26T01:01:29;10.48;;;6.85;;
11829;SDS011;5972;42.134;24.718;2023-06-26T01:03:57;8.25;;;6.30;;
11829;SDS011;5972;42.134;24.718;2023-06-26T01:06:25;11.40;;;6.80;;
11829;SDS011;5972;42.134;24.718;2023-06-26T01:08:54;9.82;;;7.03;;
11829;SDS011;5972;42.134;24.718;2023-06-26T01:11:21;7.15;;;6.45;;
11829;SDS011;5972;42.134;24.718;2023-06-26T01:13:48;12.55;;;6.93;;
11829;SDS011;5972;42.134;24.718;2023-06-26T01:16:17;9.80;;;6.55;;
11829;SDS011;5972;42.134;24.718;2023-06-26T01:18:45;11.70;;;7.20;;
11829;SDS011;5972;42.134;24.718;2023-06-26T01:21:15;8.45;;;6.93;;
11829;SDS011;5972;42.134;24.718;2023-06-26T01:23:47;8.45;;;6.70;;
11829;SDS011;5972;42.134;24.718;2023-06-26T01:26:26;9.07;;;7.22;;
11829;SDS011;5972;42.134;24.718;2023-06-26T01:28:54;7.43;;;6.72;;
11829;SDS011;5972;42.134;24.718;2023-06-26T01:31:23;10.88;;;7.20;;
11829;SDS011;5972;42.134;24.718;2023-06-26T01:33:50;11.95;;;7.38;;
11829;SDS011;5972;42.134;24.718;2023-06-26T01:36:17;9.93;;;7.38;;
11829;SDS011;5972;42.134;24.718;2023-06-26T01:38:44;9.45;;;7.32;;
11829;SDS011;5972;42.134;24.718;2023-06-26T01:41:11;10.48;;;7.50;;
11829;SDS011;5972;42.134;24.718;2023-06-26T01:43:43;9.75;;;8.07;;
11829;SDS011;5972;42.134;24.718;2023-06-26T01:46:24;9.75;;;8.05;;
11829;SDS011;5972;42.134;24.718;2023-06-26T01:49:08;8.38;;;7.57;;
11829;SDS011;5972;42.134;24.718;2023-06-26T01:51:41;12.25;;;8.15;;
11829;SDS011;5972;42.134;24.718;2023-06-26T01:54:13;11.80;;;8.70;;
11829;SDS011;5972;42.134;24.718;2023-06-26T01:56:44;9.35;;;7.13;;
11829;SDS011;5972;42.134;24.718;2023-06-26T01:59:16;10.55;;;7.90;;
11829;SDS011;5972;42.134;24.718;2023-06-26T02:01:45;13.68;;;8.60;;
11829;SDS011;5972;42.134;24.718;2023-06-26T02:04:13;8.38;;;7.22;;
11829;SDS011;5972;42.134;24.718;2023-06-26T02:06:40;10.52;;;7.93;;
11829;SDS011;5972;42.134;24.718;2023-06-26T02:09:06;10.93;;;8.63;;
11829;SDS011;5972;42.134;24.718;2023-06-26T02:11:33;13.05;;;8.63;;
11829;SDS011;5972;42.134;24.718;2023-06-26T02:14:00;10.55;;;8.75;;
11829;SDS011;5972;42.134;24.718;2023-06-26T02:16:29;10.43;;;7.90;;
11829;SDS011;5972;42.134;24.718;2023-06-26T02:18:56;10.15;;;9.10;;
11829;SDS011;5972;42.134;24.718;2023-06-26T02:21:23;11.98;;;9.00;;
11829;SDS011;5972;42.134;24.718;2023-06-26T02:23:50;12.70;;;9.27;;
11829;SDS011;5972;42.134;24.718;2023-06-26T02:26:16;12.70;;;9.02;;
11829;SDS011;5972;42.134;24.718;2023-06-26T02:28:43;12.32;;;9.40;;
11829;SDS011;5972;42.134;24.718;2023-06-26T02:31:10;12.93;;;9.05;;
11829;SDS011;5972;42.134;24.718;2023-06-26T02:33:38;12.80;;;9.43;;
11829;SDS011;5972;42.134;24.718;2023-06-26T02:36:05;11.23;;;9.45;;
11829;SDS011;5972;42.134;24.718;2023-06-26T02:38:32;17.02;;;9.60;;
11829;SDS011;5972;42.134;24.718;2023-06-26T02:40:58;16.65;;;9.70;;
11829;SDS011;5972;42.134;24.718;2023-06-26T02:43:25;14.88;;;9.73;;
11829;SDS011;5972;42.134;24.718;2023-06-26T02:45:52;14.10;;;9.00;;
11829;SDS011;5972;42.134;24.718;2023-06-26T02:48:18;10.88;;;9.65;;
11829;SDS011;5972;42.134;24.718;2023-06-26T02:50:47;11.30;;;9.77;;
11829;SDS011;5972;42.134;24.718;2023-06-26T02:53:13;17.67;;;9.63;;
11829;SDS011;5972;42.134;24.718;2023-06-26T02:55:41;13.70;;;10.25;;
11829;SDS011;5972;42.134;24.718;2023-06-26T02:58:07;10.98;;;9.68;;
11829;SDS011;5972;42.134;24.718;2023-06-26T03:00:34;11.90;;;9.10;;
11829;SDS011;5972;42.134;24.718;2023-06-26T03:03:06;12.30;;;9.68;;
11829;SDS011;5972;42.134;24.718;2023-06-26T03:05:33;13.43;;;9.23;;
11829;SDS011;5972;42.134;24.718;2023-06-26T03:08:01;13.15;;;8.65;;
11829;SDS011;5972;42.134;24.718;2023-06-26T03:10:28;13.70;;;9.50;;
11829;SDS011;5972;42.134;24.718;2023-06-26T03:12:55;11.70;;;9.10;;
11829;SDS011;5972;42.134;24.718;2023-06-26T03:15:22;15.55;;;9.10;;
11829;SDS011;5972;42.134;24.718;2023-06-26T03:17:49;10.55;;;9.48;;
11829;SDS011;5972;42.134;24.718;2023-06-26T03:20:16;17.80;;;9.10;;
11829;SDS011;5972;42.134;24.718;2023-06-26T03:22:43;12.90;;;9.20;;
11829;SDS011;5972;42.134;24.718;2023-06-26T03:25:11;11.30;;;10.10;;
11829;SDS011;5972;42.134;24.718;2023-06-26T03:27:37;13.43;;;9.32;;
11829;SDS011;5972;42.134;24.718;2023-06-26T03:30:04;11.30;;;9.57;;
11829;SDS011;5972;42.134;24.718;2023-06-26T03:32:32;16.08;;;10.02;;
11829;SDS011;5972;42.134;24.718;2023-06-26T03:34:58;13.13;;;10.18;;
11829;SDS011;5972;42.134;24.718;2023-06-26T03:37:27;12.18;;;9.75;;
11829;SDS011;5972;42.134;24.718;2023-06-26T03:39:53;13.38;;;9.23;;
11829;SDS011;5972;42.134;24.718;2023-06-26T03:42:22;13.05;;;9.77;;
11829;SDS011;5972;42.134;24.718;2023-06-26T03:44:48;11.43;;;8.93;;
11829;SDS011;5972;42.134;24.718;2023-06-26T03:47:15;15.50;;;8.95;;
11829;SDS011;5972;42.134;24.718;2023-06-26T03:49:42;12.60;;;9.15;;
11829;SDS011;5972;42.134;24.718;2023-06-26T03:52:09;10.65;;;9.15;;
11829;SDS011;5972;42.134;24.718;2023-06-26T03:54:35;13.18;;;10.07;;
11829;SDS011;5972;42.134;24.718;2023-06-26T03:57:02;12.38;;;9.68;;
11829;SDS011;5972;42.134;24.718;2023-06-26T03:59:30;14.00;;;10.02;;
11829;SDS011;5972;42.134;24.718;2023-06-26T04:01:57;15.73;;;10.00;;
11829;SDS011;5972;42.134;24.718;2023-06-26T04:04:24;12.00;;;9.85;;
11829;SDS011;5972;42.134;24.718;2023-06-26T04:06:51;17.08;;;10.10;;
11829;SDS011;5972;42.134;24.718;2023-06-26T04:09:17;15.32;;;10.73;;
11829;SDS011;5972;42.134;24.718;2023-06-26T04:11:44;16.10;;;10.18;;
11829;SDS011;5972;42.134;24.718;2023-06-26T04:14:11;11.07;;;9.55;;
11829;SDS011;5972;42.134;24.718;2023-06-26T04:16:39;13.35;;;10.55;;
11829;SDS011;5972;42.134;24.718;2023-06-26T04:19:06;10.75;;;9.50;;
11829;SDS011;5972;42.134;24.718;2023-06-26T04:21:33;15.65;;;9.70;;
11829;SDS011;5972;42.134;24.718;2023-06-26T04:23:59;13.63;;;9.70;;
11829;SDS011;5972;42.134;24.718;2023-06-26T04:26:26;11.65;;;10.00;;
11829;SDS011;5972;42.134;24.718;2023-06-26T04:28:53;15.02;;;10.10;;
11829;SDS011;5972;42.134;24.718;2023-06-26T04:31:20;12.70;;;9.85;;
11829;SDS011;5972;42.134;24.718;2023-06-26T04:33:49;11.85;;;9.95;;
11829;SDS011;5972;42.134;24.718;2023-06-26T04:36:16;14.82;;;10.10;;
11829;SDS011;5972;42.134;24.718;2023-06-26T04:38:43;14.35;;;9.63;;
11829;SDS011;5972;42.134;24.718;2023-06-26T04:41:10;11.35;;;9.20;;
11829;SDS011;5972;42.134;24.718;2023-06-26T04:43:36;12.30;;;9.88;;
11829;SDS011;5972;42.134;24.718;2023-06-26T04:46:03;13.35;;;10.18;;
11829;SDS011;5972;42.134;24.718;2023-06-26T04:48:31;11.23;;;9.30;;
11829;SDS011;5972;42.134;24.718;2023-06-26T04:50:59;11.45;;;9.15;;
11829;SDS011;5972;42.134;24.718;2023-06-26T04:53:26;10.60;;;8.73;;
11829;SDS011;5972;42.134;24.718;2023-06-26T04:55:53;10.60;;;8.88;;
11829;SDS011;5972;42.134;24.718;2023-06-26T04:58:20;9.55;;;8.50;;
11829;SDS011;5972;42.134;24.718;2023-06-26T05:00:47;12.70;;;9.18;;
11829;SDS011;5972;42.134;24.718;2023-06-26T05:03:14;9.88;;;8.80;;
11829;SDS011;5972;42.134;24.718;2023-06-26T05:05:42;11.10;;;8.90;;
11829;SDS011;5972;42.134;24.718;2023-06-26T05:08:17;10.20;;;8.52;;
11829;SDS011;5972;42.134;24.718;2023-06-26T05:10:45;13.68;;;8.95;;
11829;SDS011;5972;42.134;24.718;2023-06-26T05:13:12;11.00;;;9.30;;
11829;SDS011;5972;42.134;24.718;2023-06-26T05:15:40;9.27;;;8.23;;
11829;SDS011;5972;42.134;24.718;2023-06-26T05:18:07;13.43;;;8.43;;
11829;SDS011;5972;42.134;24.718;2023-06-26T05:20:34;11.80;;;9.13;;
11829;SDS011;5972;42.134;24.718;2023-06-26T05:23:01;9.75;;;8.48;;
11829;SDS011;5972;42.134;24.718;2023-06-26T05:25:30;12.10;;;8.60;;
11829;SDS011;5972;42.134;24.718;2023-06-26T05:27:57;16.15;;;8.73;;
11829;SDS011;5972;42.134;24.718;2023-06-26T05:30:25;14.00;;;8.45;;
11829;SDS011;5972;42.134;24.718;2023-06-26T05:32:53;10.18;;;8.13;;
11829;SDS011;5972;42.134;24.718;2023-06-26T05:35:20;12.43;;;8.10;;
11829;SDS011;5972;42.134;24.718;2023-06-26T05:37:48;11.25;;;7.95;;
11829;SDS011;5972;42.134;24.718;2023-06-26T05:40:17;11.35;;;7.70;;
11829;SDS011;5972;42.134;24.718;2023-06-26T05:42:46;9.93;;;7.50;;
11829;SDS011;5972;42.134;24.718;2023-06-26T05:45:13;8.05;;;7.25;;
11829;SDS011;5972;42.134;24.718;2023-06-26T05:47:41;9.32;;;7.70;;
11829;SDS011;5972;42.134;24.718;2023-06-26T05:50:08;11.15;;;7.18;;
11829;SDS011;5972;42.134;24.718;2023-06-26T05:52:36;11.52;;;6.97;;
11829;SDS011;5972;42.134;24.718;2023-06-26T05:55:04;9.32;;;7.30;;
11829;SDS011;5972;42.134;24.718;2023-06-26T05:57:31;10.70;;;6.88;;
11829;SDS011;5972;42.134;24.718;2023-06-26T06:00:02;20.08;;;7.38;;
11829;SDS011;5972;42.134;24.718;2023-06-26T06:02:32;15.73;;;7.95;;
11829;SDS011;5972;42.134;24.718;2023-06-26T06:04:58;10.73;;;6.90;;
11829;SDS011;5972;42.134;24.718;2023-06-26T06:07:25;9.77;;;7.25;;
11829;SDS011;5972;42.134;24.718;2023-06-26T06:09:52;10.18;;;7.00;;
11829;SDS011;5972;42.134;24.718;2023-06-26T06:12:18;8.63;;;6.78;;
11829;SDS011;5972;42.134;24.718;2023-06-26T06:14:45;11.52;;;7.10;;
11829;SDS011;5972;42.134;24.718;2023-06-26T06:17:13;10.15;;;6.93;;
11829;SDS011;5972;42.134;24.718;2023-06-26T06:19:40;8.85;;;6.93;;
11829;SDS011;5972;42.134;24.718;2023-06-26T06:22:07;11.15;;;6.70;;
11829;SDS011;5972;42.134;24.718;2023-06-26T06:24:34;14.20;;;7.05;;
11829;SDS011;5972;42.134;24.718;2023-06-26T06:27:00;7.60;;;6.80;;
11829;SDS011;5972;42.134;24.718;2023-06-26T06:29:27;11.07;;;7.15;;
11829;SDS011;5972;42.134;24.718;2023-06-26T06:31:54;11.82;;;7.10;;
11829;SDS011;5972;42.134;24.718;2023-06-26T06:34:22;10.48;;;7.18;;
11829;SDS011;5972;42.134;24.718;2023-06-26T06:36:49;9.02;;;6.90;;
11829;SDS011;5972;42.134;24.718;2023-06-26T06:39:16;8.80;;;7.10;;
11829;SDS011;5972;42.134;24.718;2023-06-26T06:41:42;8.73;;;7.10;;
11829;SDS011;5972;42.134;24.718;2023-06-26T06:44:09;10.13;;;6.82;;
11829;SDS011;5972;42.134;24.718;2023-06-26T06:46:36;10.70;;;6.43;;
11829;SDS011;5972;42.134;24.718;2023-06-26T06:49:03;6.95;;;6.13;;
11829;SDS011;5972;42.134;24.718;2023-06-26T06:51:32;13.18;;;6.82;;
11829;SDS011;5972;42.134;24.718;2023-06-26T06:53:58;9.00;;;6.60;;
11829;SDS011;5972;42.134;24.718;2023-06-26T06:56:25;12.95;;;6.65;;
11829;SDS011;5972;42.134;24.718;2023-06-26T06:58:53;12.30;;;6.32;;
11829;SDS011;5972;42.134;24.718;2023-06-26T07:01:19;12.05;;;6.50;;
11829;SDS011;5972;42.134;24.718;2023-06-26T07:03:46;13.43;;;6.47;;
11829;SDS011;5972;42.134;24.718;2023-06-26T07:06:13;11.60;;;5.85;;
11829;SDS011;5972;42.134;24.718;2023-06-26T07:08:41;24.40;;;6.07;;
11829;SDS011;5972;42.134;24.718;2023-06-26T07:11:08;8.00;;;5.30;;
11829;SDS011;5972;42.134;24.718;2023-06-26T07:13:35;13.43;;;5.97;;
11829;SDS011;5972;42.134;24.718;2023-06-26T07:16:01;7.53;;;5.22;;
11829;SDS011;5972;42.134;24.718;2023-06-26T07:18:28;5.28;;;4.72;;
11829;SDS011;5972;42.134;24.718;2023-06-26T07:20:55;7.60;;;5.00;;
11829;SDS011;5972;42.134;24.718;2023-06-26T07:23:22;8.20;;;5.05;;
11829;SDS011;5972;42.134;24.718;2023-06-26T07:25:50;6.78;;;5.10;;
11829;SDS011;5972;42.134;24.718;2023-06-26T07:28:17;8.80;;;5.20;;
11829;SDS011;5972;42.134;24.718;2023-06-26T07:30:43;7.15;;;5.82;;
11829;SDS011;5972;42.134;24.718;2023-06-26T07:33:10;5.97;;;5.35;;
11829;SDS011;5972;42.134;24.718;2023-06-26T07:35:37;7.07;;;4.88;;
11829;SDS011;5972;42.134;24.718;2023-06-26T07:38:04;8.60;;;4.95;;
11829;SDS011;5972;42.134;24.718;2023-06-26T07:40:31;5.90;;;4.70;;
11829;SDS011;5972;42.134;24.718;2023-06-26T07:42:59;5.07;;;4.40;;
11829;SDS011;5972;42.134;24.718;2023-06-26T07:45:25;4.40;;;4.10;;
11829;SDS011;5972;42.134;24.718;2023-06-26T07:47:52;7.35;;;4.90;;
11829;SDS011;5972;42.134;24.718;2023-06-26T07:50:19;5.40;;;4.90;;
11829;SDS011;5972;42.134;24.718;2023-06-26T07:52:48;7.82;;;4.78;;
11829;SDS011;5972;42.134;24.718;2023-06-26T07:55:14;7.55;;;4.53;;
11829;SDS011;5972;42.134;24.718;2023-06-26T07:57:41;5.88;;;4.88;;
11829;SDS011;5972;42.134;24.718;2023-06-26T08:00:10;9.77;;;4.60;;
11829;SDS011;5972;42.134;24.718;2023-06-26T08:02:37;7.97;;;4.32;;
11829;SDS011;5972;42.134;24.718;2023-06-26T08:05:04;5.43;;;4.32;;
11829;SDS011;5972;42.134;24.718;2023-06-26T08:07:31;5.30;;;4.50;;
11829;SDS011;5972;42.134;24.718;2023-06-26T08:09:58;5.47;;;4.97;;
11829;SDS011;5972;42.134;24.718;2023-06-26T08:12:25;6.03;;;4.82;;
11829;SDS011;5972;42.134;24.718;2023-06-26T08:14:52;9.23;;;5.00;;
11829;SDS011;5972;42.134;24.718;2023-06-26T08:17:20;5.53;;;4.60;;
11829;SDS011;5972;42.134;24.718;2023-06-26T08:19:46;6.03;;;5.07;;
11829;SDS011;5972;42.134;24.718;2023-06-26T08:22:13;5.95;;;4.72;;
11829;SDS011;5972;42.134;24.718;2023-06-26T08:24:40;5.90;;;4.93;;
11829;SDS011;5972;42.134;24.718;2023-06-26T08:27:07;5.22;;;4.47;;
11829;SDS011;5972;42.134;24.718;2023-06-26T08:29:33;12.13;;;4.75;;
11829;SDS011;5972;42.134;24.718;2023-06-26T08:32:00;6.20;;;4.65;;
11829;SDS011;5972;42.134;24.718;2023-06-26T08:34:29;8.13;;;5.00;;
11829;SDS011;5972;42.134;24.718;2023-06-26T08:36:56;8.48;;;5.05;;
11829;SDS011;5972;42.134;24.718;2023-06-26T08:39:23;8.02;;;4.85;;
11829;SDS011;5972;42.134;24.718;2023-06-26T08:41:49;5.13;;;4.70;;
11829;SDS011;5972;42.134;24.718;2023-06-26T08:44:16;5.13;;;4.63;;
11829;SDS011;5972;42.134;24.718;2023-06-26T08:46:43;8.65;;;4.80;;
11829;SDS011;5972;42.134;24.718;2023-06-26T08:49:13;5.13;;;4.35;;
11829;SDS011;5972;42.134;24.718;2023-06-26T08:51:48;10.80;;;4.65;;
11829;SDS011;5972;42.134;24.718;2023-06-26T08:54:18;6.10;;;4.80;;
11829;SDS011;5972;42.134;24.718;2023-06-26T08:56:49;5.47;;;4.65;;
11829;SDS011;5972;42.134;24.718;2023-06-26T08:59:16;6.30;;;4.60;;
11829;SDS011;5972;42.134;24.718;2023-06-26T09:01:43;7.32;;;5.13;;
11829;SDS011;5972;42.134;24.718;2023-06-26T09:04:10;7.50;;;4.75;;
11829;SDS011;5972;42.134;24.718;2023-06-26T09:06:37;5.43;;;4.93;;
11829;SDS011;5972;42.134;24.718;2023-06-26T09:09:05;11.10;;;5.05;;
11829;SDS011;5972;42.134;24.718;2023-06-26T09:11:32;6.82;;;5.22;;
11829;SDS011;5972;42.134;24.718;2023-06-26T09:13:59;7.68;;;5.10;;
11829;SDS011;5972;42.134;24.718;2023-06-26T09:16:30;5.60;;;5.00;;
11829;SDS011;5972;42.134;24.718;2023-06-26T09:18:56;5.10;;;4.60;;
11829;SDS011;5972;42.134;24.718;2023-06-26T09:21:23;8.15;;;4.85;;
11829;SDS011;5972;42.134;24.718;2023-06-26T09:23:50;6.78;;;4.57;;
11829;SDS011;5972;42.134;24.718;2023-06-26T09:26:20;5.65;;;4.40;;
11829;SDS011;5972;42.134;24.718;2023-06-26T09:28:48;7.72;;;4.72;;
11829;SDS011;5972;42.134;24.718;2023-06-26T09:31:15;5.80;;;4.63;;
11829;SDS011;5972;42.134;24.718;2023-06-26T09:33:46;6.65;;;4.88;;
11829;SDS011;5972;42.134;24.718;2023-06-26T09:36:18;7.40;;;4.38;;
11829;SDS011;5972;42.134;24.718;2023-06-26T09:38:46;5.45;;;4.32;;
11829;SDS011;5972;42.134;24.718;2023-06-26T09:41:15;6.75;;;5.00;;
11829;SDS011;5972;42.134;24.718;2023-06-26T09:43:46;7.57;;;5.50;;
11829;SDS011;5972;42.134;24.718;2023-06-26T09:46:15;6.15;;;5.57;;
11829;SDS011;5972;42.134;24.718;2023-06-26T09:48:43;8.10;;;5.40;;
11829;SDS011;5972;42.134;24.718;2023-06-26T09:51:10;9.10;;;5.35;;
11829;SDS011;5972;42.134;24.718;2023-06-26T09:53:36;7.00;;;6.30;;
11829;SDS011;5972;42.134;24.718;2023-06-26T09:56:06;8.60;;;6.40;;
11829;SDS011;5972;42.134;24.718;2023-06-26T09:58:33;10.18;;;6.10;;
11829;SDS011;5972;42.134;24.718;2023-06-26T10:01:05;7.78;;;5.28;;
11829;SDS011;5972;42.134;24.718;2023-06-26T10:03:34;5.78;;;5.22;;
11829;SDS011;5972;42.134;24.718;2023-06-26T10:06:01;9.68;;;5.95;;
11829;SDS011;5972;42.134;24.718;2023-06-26T10:08:29;5.90;;;5.15;;
11829;SDS011;5972;42.134;24.718;2023-06-26T10:10:57;7.78;;;5.22;;
11829;SDS011;5972;42.134;24.718;2023-06-26T10:13:25;5.68;;;5.07;;
11829;SDS011;5972;42.134;24.718;2023-06-26T10:15:57;6.40;;;5.80;;
11829;SDS011;5972;42.134;24.718;2023-06-26T10:18:28;7.20;;;4.90;;
11829;SDS011;5972;42.134;24.718;2023-06-26T10:20:58;5.57;;;4.95;;
11829;SDS011;5972;42.134;24.718;2023-06-26T10:23:28;5.63;;;4.95;;
11829;SDS011;5972;42.134;24.718;2023-06-26T10:25:58;7.50;;;5.53;;
11829;SDS011;5972;42.134;24.718;2023-06-26T10:28:26;7.20;;;5.10;;
11829;SDS011;5972;42.134;24.718;2023-06-26T10:30:56;8.18;;;5.57;;
11829;SDS011;5972;42.134;24.718;2023-06-26T10:33:24;9.77;;;5.32;;
11829;SDS011;5972;42.134;24.718;2023-06-26T10:35:53;8.20;;;5.20;;
11829;SDS011;5972;42.134;24.718;2023-06-26T10:38:48;5.90;;;4.18;;
11829;SDS011;5972;42.134;24.718;2023-06-26T10:41:18;5.35;;;4.10;;
11829;SDS011;5972;42.134;24.718;2023-06-26T10:43:48;4.95;;;3.80;;
11829;SDS011;5972;42.134;24.718;2023-06-26T10:46:17;3.92;;;3.55;;
11829;SDS011;5972;42.134;24.718;2023-06-26T10:48:55;3.95;;;3.63;;
11829;SDS011;5972;42.134;24.718;2023-06-26T10:51:24;5.13;;;3.58;;
11829;SDS011;5972;42.134;24.718;2023-06-26T10:53:53;4.78;;;3.95;;
11829;SDS011;5972;42.134;24.718;2023-06-26T10:56:20;5.63;;;3.90;;
11829;SDS011;5972;42.134;24.718;2023-06-26T10:58:47;9.77;;;4.03;;
11829;SDS011;5972;42.134;24.718;2023-06-26T11:01:18;11.90;;;4.60;;
11829;SDS011;5972;42.134;24.718;2023-06-26T11:03:47;8.90;;;4.15;;
11829;SDS011;5972;42.134;24.718;2023-06-26T11:06:17;5.97;;;4.38;;
11829;SDS011;5972;42.134;24.718;2023-06-26T11:08:48;8.32;;;4.60;;
11829;SDS011;5972;42.134;24.718;2023-06-26T11:11:16;9.95;;;4.70;;
11829;SDS011;5972;42.134;24.718;2023-06-26T11:13:44;6.88;;;4.57;;
11829;SDS011;5972;42.134;24.718;2023-06-26T11:16:12;4.82;;;4.22;;
11829;SDS011;5972;42.134;24.718;2023-06-26T11:18:40;8.43;;;5.10;;
11829;SDS011;5972;42.134;24.718;2023-06-26T11:21:07;12.07;;;4.78;;
11829;SDS011;5972;42.134;24.718;2023-06-26T11:23:36;5.47;;;4.28;;
11829;SDS011;5972;42.134;24.718;2023-06-26T11:26:14;10.55;;;4.47;;
11829;SDS011;5972;42.134;24.718;2023-06-26T11:28:49;6.07;;;4.80;;
11829;SDS011;5972;42.134;24.718;2023-06-26T11:31:27;7.05;;;5.03;;
11829;SDS011;5972;42.134;24.718;2023-06-26T11:33:59;15.05;;;5.30;;
11829;SDS011;5972;42.134;24.718;2023-06-26T11:36:31;8.85;;;5.15;;
11829;SDS011;5972;42.134;24.718;2023-06-26T11:39:03;7.65;;;4.45;;
11829;SDS011;5972;42.134;24.718;2023-06-26T11:41:34;6.85;;;4.85;;
11829;SDS011;5972;42.134;24.718;2023-06-26T11:44:02;10.85;;;5.28;;
11829;SDS011;5972;42.134;24.718;2023-06-26T11:46:34;7.35;;;4.95;;
11829;SDS011;5972;42.134;24.718;2023-06-26T11:49:05;7.57;;;4.80;;
11829;SDS011;5972;42.134;24.718;2023-06-26T11:51:36;6.25;;;4.75;;
11829;SDS011;5972;42.134;24.718;2023-06-26T11:54:08;6.55;;;4.97;;
11829;SDS011;5972;42.134;24.718;2023-06-26T11:56:38;7.22;;;4.57;;
11829;SDS011;5972;42.134;24.718;2023-06-26T11:59:06;7.68;;;5.85;;
11829;SDS011;5972;42.134;24.718;2023-06-26T12:01:34;7.25;;;5.63;;
11829;SDS011;5972;42.134;24.718;2023-06-26T12:04:02;10.10;;;5.63;;
11829;SDS011;5972;42.134;24.718;2023-06-26T12:06:32;6.68;;;5.60;;
11829;SDS011;5972;42.134;24.718;2023-06-26T12:09:01;8.30;;;5.85;;
11829;SDS011;5972;42.134;24.718;2023-06-26T12:11:34;5.60;;;5.10;;
11829;SDS011;5972;42.134;24.718;2023-06-26T12:14:04;8.82;;;5.30;;
11829;SDS011;5972;42.134;24.718;2023-06-26T12:16:32;7.40;;;5.35;;
11829;SDS011;5972;42.134;24.718;2023-06-26T12:19:00;6.32;;;4.68;;
11829;SDS011;5972;42.134;24.718;2023-06-26T12:21:28;4.07;;;2.70;;
11829;SDS011;5972;42.134;24.718;2023-06-26T12:23:58;4.50;;;2.60;;
11829;SDS011;5972;42.134;24.718;2023-06-26T12:26:26;3.20;;;2.35;;
11829;SDS011;5972;42.134;24.718;2023-06-26T12:28:54;5.20;;;2.75;;
11829;SDS011;5972;42.134;24.718;2023-06-26T12:31:29;3.35;;;2.83;;
11829;SDS011;5972;42.134;24.718;2023-06-26T12:33:58;3.30;;;2.88;;
11829;SDS011;5972;42.134;24.718;2023-06-26T12:36:25;4.38;;;2.47;;
11829;SDS011;5972;42.134;24.718;2023-06-26T12:38:52;4.78;;;2.65;;
11829;SDS011;5972;42.134;24.718;2023-06-26T12:41:19;5.25;;;2.95;;
11829;SDS011;5972;42.134;24.718;2023-06-26T12:43:49;6.25;;;2.92;;
11829;SDS011;5972;42.134;24.718;2023-06-26T12:46:33;4.70;;;2.75;;
11829;SDS011;5972;42.134;24.718;2023-06-26T12:49:01;4.28;;;2.90;;
11829;SDS011;5972;42.134;24.718;2023-06-26T12:51:28;8.48;;;5.20;;
11829;SDS011;5972;42.134;24.718;2023-06-26T12:53:54;8.15;;;4.88;;
11829;SDS011;5972;42.134;24.718;2023-06-26T12:56:21;8.45;;;4.82;;
11829;SDS011;5972;42.134;24.718;2023-06-26T12:58:48;11.70;;;5.35;;
11829;SDS011;5972;42.134;24.718;2023-06-26T13:01:15;8.95;;;5.55;;
11829;SDS011;5972;42.134;24.718;2023-06-26T13:03:43;6.80;;;4.82;;
11829;SDS011;5972;42.134;24.718;2023-06-26T13:06:10;8.75;;;5.13;;
11829;SDS011;5972;42.134;24.718;2023-06-26T13:08:38;7.88;;;5.20;;
11829;SDS011;5972;42.134;24.718;2023-06-26T13:11:04;7.22;;;4.82;;
11829;SDS011;5972;42.134;24.718;2023-06-26T13:13:31;4.72;;;4.30;;
11829;SDS011;5972;42.134;24.718;2023-06-26T13:15:58;6.88;;;4.75;;
11829;SDS011;5972;42.134;24.718;2023-06-26T13:18:25;4.65;;;4.03;;
11829;SDS011;5972;42.134;24.718;2023-06-26T13:20:53;4.95;;;4.55;;
11829;SDS011;5972;42.134;24.718;2023-06-26T13:23:20;4.90;;;4.40;;
11829;SDS011;5972;42.134;24.718;2023-06-26T13:25:47;6.82;;;5.25;;
11829;SDS011;5972;42.134;24.718;2023-06-26T13:28:14;7.38;;;4.90;;
11829;SDS011;5972;42.134;24.718;2023-06-26T13:30:40;6.90;;;4.97;;
11829;SDS011;5972;42.134;24.718;2023-06-26T13:33:07;5.90;;;4.38;;
11829;SDS011;5972;42.134;24.718;2023-06-26T13:35:35;7.03;;;4.55;;
11829;SDS011;5972;42.134;24.718;2023-06-26T13:38:03;8.00;;;3.92;;
11829;SDS011;5972;42.134;24.718;2023-06-26T13:40:30;7.07;;;3.47;;
11829;SDS011;5972;42.134;24.718;2023-06-26T13:42:57;9.23;;;3.85;;
11829;SDS011;5972;42.134;24.718;2023-06-26T13:45:24;8.38;;;3.70;;
11829;SDS011;5972;42.134;24.718;2023-06-26T13:47:51;4.47;;;3.35;;
11829;SDS011;5972;42.134;24.718;2023-06-26T13:50:18;4.63;;;3.70;;
11829;SDS011;5972;42.134;24.718;2023-06-26T13:52:45;5.10;;;3.40;;
11829;SDS011;5972;42.134;24.718;2023-06-26T13:55:13;5.80;;;4.00;;
11829;SDS011;5972;42.134;24.718;2023-06-26T13:57:41;7.30;;;4.00;;
11829;SDS011;5972;42.134;24.718;2023-06-26T14:00:08;8.90;;;3.47;;
11829;SDS011;5972;42.134;24.718;2023-06-26T14:02:37;9.73;;;3.60;;
11829;SDS011;5972;42.134;24.718;2023-06-26T14:05:04;7.65;;;3.65;;
11829;SDS011;5972;42.134;24.718;2023-06-26T14:07:31;6.45;;;3.33;;
11829;SDS011;5972;42.134;24.718;2023-06-26T14:09:57;7.53;;;3.53;;
11829;SDS011;5972;42.134;24.718;2023-06-26T14:12:26;4.25;;;3.28;;
11829;SDS011;5972;42.134;24.718;2023-06-26T14:14:52;5.93;;;3.17;;
11829;SDS011;5972;42.134;24.718;2023-06-26T14:17:19;4.68;;;3.15;;
11829;SDS011;5972;42.134;24.718;2023-06-26T14:19:46;5.50;;;3.20;;
11829;SDS011;5972;42.134;24.718;2023-06-26T14:22:12;3.72;;;2.83;;
11829;SDS011;5972;42.134;24.718;2023-06-26T14:24:39;6.28;;;3.50;;
11829;SDS011;5972;42.134;24.718;2023-06-26T14:27:06;10.73;;;2.92;;
11829;SDS011;5972;42.134;24.718;2023-06-26T14:29:35;3.30;;;2.78;;
11829;SDS011;5972;42.134;24.718;2023-06-26T14:32:02;6.95;;;3.20;;
11829;SDS011;5972;42.134;24.718;2023-06-26T14:34:29;7.68;;;3.30;;
11829;SDS011;5972;42.134;24.718;2023-06-26T14:36:56;6.03;;;3.10;;
11829;SDS011;5972;42.134;24.718;2023-06-26T14:39:23;4.32;;;2.90;;
11829;SDS011;5972;42.134;24.718;2023-06-26T14:41:50;8.60;;;3.20;;
11829;SDS011;5972;42.134;24.718;2023-06-26T14:44:17;7.03;;;3.13;;
11829;SDS011;5972;42.134;24.718;2023-06-26T14:46:45;4.93;;;3.60;;